• Join FlightAware (Why Join?)
  • Login
  • US Flag 
01:14AM EDT


 

Airport Tracker/Info


-or-


 

Live Flight TrackerFlight Track Log ✈ BLS386 ✈ 28-Oct-2013 ✈ CYSB - CYTS

Flight Track Log - Related Links

Times and Time Zones

All times are in EDT time to prevent confusion due to time zone crossing. See the BLS386 flight status page for this flight to view local times or setup timezone preferences in your user account.

Time Position Orientation Groundspeed Altitude Reporting Facility
EDT Latitude Longitude Course Direction KTS MPH feet Rate Location/Type
01:57PM 46.6500 -80.7667 347° North 160 184 2,000  Level Toronto Center
01:58PM 46.7000 -80.7500 13° North 180 207 4,100 1,740 Climbing Toronto Center
01:59PM 46.7500 -80.7667 347° North 210 242 5,500 1,200 Climbing Toronto Center
02:00PM 46.8167 -80.8000 341° North 240 276 6,500 1,020 Climbing Toronto Center
02:01PM 46.8833 -80.8500 333° Northwest 250 288 7,600 1,080 Climbing Toronto Center
02:02PM 46.9660 -80.8942 347° North  Level FlightAware Approximate
02:02PM 46.9500 -80.8833 341° North 250 288 8,700  Level Toronto Center
02:03PM 47.0167 -80.8833 360° North 250 288 9,700 960 Climbing Toronto Center
02:04PM 47.0833 -80.9000 350° North 260 299 10,700 1,140 Climbing Toronto Center
02:05PM 47.1500 -80.9333 341° North 250 288 12,000 600 Climbing Toronto Center
02:06PM 47.2167 -80.9500 350° North 250 288 12,000  Level Toronto Center
02:07PM 47.2833 -80.9500 360° North 270 311 12,000  Level Toronto Center
02:08PM 47.3500 -80.9833 341° North 260 299 12,000  Level Toronto Center
02:09PM 47.4000 -81.0167 336° Northwest 200 230 12,000 -60 Level Toronto Center
02:10PM 47.4500 -81.0167 360° North 140 161 11,900  Descending Toronto Center
02:11PM 47.4833 -81.0333 341° North 140 161 12,100  Climbing Toronto Center
02:12PM 47.5167 -81.0667 326° Northwest 150 173 12,000 -60 Descending Toronto Center
02:13PM 47.5667 -81.0667 360° North 150 173 12,000 -60 Level Toronto Center
02:14PM 47.6000 -81.0833 341° North 150 173 11,900  Descending Toronto Center
02:15PM 47.6333 -81.1167 326° Northwest 150 173 12,000  Climbing Toronto Center
02:16PM 47.6833 -81.1167 360° North 140 161 11,900  Descending Toronto Center
02:17PM 47.7167 -81.1500 326° Northwest 140 161 12,000  Climbing Toronto Center
02:18PM 47.7500 -81.1667 341° North 140 161 12,000  Level Toronto Center
02:19PM 47.8000 -81.1667 360° North 140 161 12,000 -360 Level Toronto Center
02:20PM 47.8333 -81.2000 326° Northwest 140 161 11,300 -660 Descending Toronto Center
02:21PM 47.8667 -81.2167 341° North 140 161 10,700 -600 Descending Toronto Center
02:24PM 47.9802 -81.2025 North  Level FlightAware Approximate
02:31PM 48.3754 -81.3184 352° North  Level FlightAware Approximate
02:32PM 48.4319 -81.3297 352° North  Level FlightAware Approximate
02:33PM 48.4874 -81.3483 345° North  Level FlightAware Approximate
02:34PM 48.5427 -81.3667 North  Level FlightAware Approximate